sensor_id;sensor_type;location;lat;lon;timestamp;temperature;humidity
22680;DHT22;11507;44.858;10.374;2023-06-22T00:00:58;23.10;99.90
22680;DHT22;11507;44.858;10.374;2023-06-22T00:03:25;23.10;99.90
22680;DHT22;11507;44.858;10.374;2023-06-22T00:05:51;23.10;99.90
22680;DHT22;11507;44.858;10.374;2023-06-22T00:08:19;23.20;99.90
22680;DHT22;11507;44.858;10.374;2023-06-22T00:10:46;23.20;99.90
22680;DHT22;11507;44.858;10.374;2023-06-22T00:13:12;23.30;99.90
22680;DHT22;11507;44.858;10.374;2023-06-22T00:15:40;23.30;99.90
22680;DHT22;11507;44.858;10.374;2023-06-22T00:18:07;23.20;99.90
22680;DHT22;11507;44.858;10.374;2023-06-22T00:20:33;23.20;99.90
22680;DHT22;11507;44.858;10.374;2023-06-22T00:23:00;23.20;99.90
22680;DHT22;11507;44.858;10.374;2023-06-22T00:25:26;23.20;99.90
22680;DHT22;11507;44.858;10.374;2023-06-22T00:27:52;23.20;99.90
22680;DHT22;11507;44.858;10.374;2023-06-22T00:30:19;23.10;99.90
22680;DHT22;11507;44.858;10.374;2023-06-22T00:32:45;23.10;99.90
22680;DHT22;11507;44.858;10.374;2023-06-22T00:35:13;23.00;99.90
22680;DHT22;11507;44.858;10.374;2023-06-22T00:37:40;23.00;99.90
22680;DHT22;11507;44.858;10.374;2023-06-22T00:40:10;23.00;99.90
22680;DHT22;11507;44.858;10.374;2023-06-22T00:42:40;22.90;99.90
22680;DHT22;11507;44.858;10.374;2023-06-22T00:45:08;22.80;99.90
22680;DHT22;11507;44.858;10.374;2023-06-22T00:47:34;22.80;99.90
22680;DHT22;11507;44.858;10.374;2023-06-22T00:50:06;22.70;99.90
22680;DHT22;11507;44.858;10.374;2023-06-22T00:52:33;22.60;99.90
22680;DHT22;11507;44.858;10.374;2023-06-22T00:55:02;22.50;99.90
22680;DHT22;11507;44.858;10.374;2023-06-22T00:57:28;22.50;99.90
22680;DHT22;11507;44.858;10.374;2023-06-22T00:59:55;22.50;99.90
22680;DHT22;11507;44.858;10.374;2023-06-22T01:02:21;22.40;99.90
22680;DHT22;11507;44.858;10.374;2023-06-22T01:04:48;22.40;99.90
22680;DHT22;11507;44.858;10.374;2023-06-22T01:10:15;22.40;99.90
22680;DHT22;11507;44.858;10.374;2023-06-22T01:12:45;22.20;99.90
22680;DHT22;11507;44.858;10.374;2023-06-22T01:15:23;22.30;99.90
22680;DHT22;11507;44.858;10.374;2023-06-22T01:17:52;22.30;99.90
22680;DHT22;11507;44.858;10.374;2023-06-22T01:20:21;22.30;99.90
22680;DHT22;11507;44.858;10.374;2023-06-22T01:23:20;22.30;99.90
22680;DHT22;11507;44.858;10.374;2023-06-22T01:26:14;22.30;99.90
22680;DHT22;11507;44.858;10.374;2023-06-22T01:28:49;22.20;99.90
22680;DHT22;11507;44.858;10.374;2023-06-22T01:31:22;22.10;99.90
22680;DHT22;11507;44.858;10.374;2023-06-22T01:33:55;22.00;99.90
22680;DHT22;11507;44.858;10.374;2023-06-22T01:36:23;21.90;99.90
22680;DHT22;11507;44.858;10.374;2023-06-22T01:38:50;21.90;99.90
22680;DHT22;11507;44.858;10.374;2023-06-22T01:41:20;21.90;99.90
22680;DHT22;11507;44.858;10.374;2023-06-22T01:43:47;21.90;99.90
22680;DHT22;11507;44.858;10.374;2023-06-22T01:46:14;21.80;99.90
22680;DHT22;11507;44.858;10.374;2023-06-22T01:48:43;21.80;99.90
22680;DHT22;11507;44.858;10.374;2023-06-22T01:51:09;21.80;99.90
22680;DHT22;11507;44.858;10.374;2023-06-22T01:53:35;21.70;99.90
22680;DHT22;11507;44.858;10.374;2023-06-22T01:56:01;21.80;99.90
22680;DHT22;11507;44.858;10.374;2023-06-22T01:58:29;21.80;99.90
22680;DHT22;11507;44.858;10.374;2023-06-22T02:01:17;21.80;99.90
22680;DHT22;11507;44.858;10.374;2023-06-22T02:03:58;21.70;99.90
22680;DHT22;11507;44.858;10.374;2023-06-22T02:06:31;21.70;99.90
22680;DHT22;11507;44.858;10.374;2023-06-22T02:09:07;21.70;99.90
22680;DHT22;11507;44.858;10.374;2023-06-22T02:11:37;21.50;99.90
22680;DHT22;11507;44.858;10.374;2023-06-22T02:14:05;21.50;99.90
22680;DHT22;11507;44.858;10.374;2023-06-22T02:16:32;21.40;99.90
22680;DHT22;11507;44.858;10.374;2023-06-22T02:19:01;21.40;99.90
22680;DHT22;11507;44.858;10.374;2023-06-22T02:21:31;21.30;99.90
22680;DHT22;11507;44.858;10.374;2023-06-22T02:23:57;21.20;99.90
22680;DHT22;11507;44.858;10.374;2023-06-22T02:26:25;21.20;99.90
22680;DHT22;11507;44.858;10.374;2023-06-22T02:28:53;21.10;99.90
22680;DHT22;11507;44.858;10.374;2023-06-22T02:31:19;21.10;99.90
22680;DHT22;11507;44.858;10.374;2023-06-22T02:33:46;21.10;99.90
22680;DHT22;11507;44.858;10.374;2023-06-22T02:36:12;21.10;99.90
22680;DHT22;11507;44.858;10.374;2023-06-22T02:38:42;21.00;99.90
22680;DHT22;11507;44.858;10.374;2023-06-22T02:41:14;21.00;99.90
22680;DHT22;11507;44.858;10.374;2023-06-22T02:43:47;20.90;99.90
22680;DHT22;11507;44.858;10.374;2023-06-22T02:46:14;20.80;99.90
22680;DHT22;11507;44.858;10.374;2023-06-22T02:48:41;20.80;99.90
22680;DHT22;11507;44.858;10.374;2023-06-22T02:51:07;20.80;99.90
22680;DHT22;11507;44.858;10.374;2023-06-22T02:53:35;20.80;99.90
22680;DHT22;11507;44.858;10.374;2023-06-22T02:56:02;20.80;99.90
22680;DHT22;11507;44.858;10.374;2023-06-22T02:58:33;20.90;99.90
22680;DHT22;11507;44.858;10.374;2023-06-22T03:01:05;20.90;99.90
22680;DHT22;11507;44.858;10.374;2023-06-22T03:03:33;21.00;99.90
22680;DHT22;11507;44.858;10.374;2023-06-22T03:06:00;21.10;99.90
22680;DHT22;11507;44.858;10.374;2023-06-22T03:08:28;21.10;99.90
22680;DHT22;11507;44.858;10.374;2023-06-22T03:10:57;21.10;99.90
22680;DHT22;11507;44.858;10.374;2023-06-22T03:13:29;21.10;99.90
22680;DHT22;11507;44.858;10.374;2023-06-22T03:15:54;21.20;99.90
22680;DHT22;11507;44.858;10.374;2023-06-22T03:18:22;21.10;99.90
22680;DHT22;11507;44.858;10.374;2023-06-22T03:20:48;21.10;99.90
22680;DHT22;11507;44.858;10.374;2023-06-22T03:23:23;21.10;99.90
22680;DHT22;11507;44.858;10.374;2023-06-22T03:25:49;21.00;99.90
22680;DHT22;11507;44.858;10.374;2023-06-22T03:28:15;21.00;99.90
22680;DHT22;11507;44.858;10.374;2023-06-22T03:30:41;21.10;99.90
22680;DHT22;11507;44.858;10.374;2023-06-22T03:33:07;21.10;99.90
22680;DHT22;11507;44.858;10.374;2023-06-22T03:35:34;21.20;99.90
22680;DHT22;11507;44.858;10.374;2023-06-22T03:38:00;21.20;99.90
22680;DHT22;11507;44.858;10.374;2023-06-22T03:40:26;21.10;99.90
22680;DHT22;11507;44.858;10.374;2023-06-22T03:42:52;21.10;99.90
22680;DHT22;11507;44.858;10.374;2023-06-22T03:45:18;21.10;99.90
22680;DHT22;11507;44.858;10.374;2023-06-22T03:47:44;21.20;99.90
22680;DHT22;11507;44.858;10.374;2023-06-22T03:50:10;21.20;99.90
22680;DHT22;11507;44.858;10.374;2023-06-22T03:52:36;21.20;99.90
22680;DHT22;11507;44.858;10.374;2023-06-22T03:55:02;21.30;99.90
22680;DHT22;11507;44.858;10.374;2023-06-22T03:57:28;21.30;99.90
22680;DHT22;11507;44.858;10.374;2023-06-22T03:59:57;21.30;99.90
22680;DHT22;11507;44.858;10.374;2023-06-22T04:02:23;21.30;99.90
22680;DHT22;11507;44.858;10.374;2023-06-22T04:04:50;21.30;99.90
22680;DHT22;11507;44.858;10.374;2023-06-22T04:07:16;21.30;99.90
22680;DHT22;11507;44.858;10.374;2023-06-22T04:09:43;21.40;99.90
22680;DHT22;11507;44.858;10.374;2023-06-22T04:12:09;21.40;99.90
22680;DHT22;11507;44.858;10.374;2023-06-22T04:14:35;21.40;99.90
22680;DHT22;11507;44.858;10.374;2023-06-22T04:17:03;21.40;99.90
22680;DHT22;11507;44.858;10.374;2023-06-22T04:19:29;21.50;99.90
22680;DHT22;11507;44.858;10.374;2023-06-22T04:21:55;21.50;99.90
22680;DHT22;11507;44.858;10.374;2023-06-22T04:24:21;21.50;99.90
22680;DHT22;11507;44.858;10.374;2023-06-22T04:26:46;21.60;99.90
22680;DHT22;11507;44.858;10.374;2023-06-22T04:29:13;21.60;99.90
22680;DHT22;11507;44.858;10.374;2023-06-22T04:31:39;21.60;99.90
22680;DHT22;11507;44.858;10.374;2023-06-22T04:34:06;21.70;99.90
22680;DHT22;11507;44.858;10.374;2023-06-22T04:36:40;21.70;99.90
22680;DHT22;11507;44.858;10.374;2023-06-22T04:39:07;21.60;99.90
22680;DHT22;11507;44.858;10.374;2023-06-22T04:41:39;21.70;99.90
22680;DHT22;11507;44.858;10.374;2023-06-22T04:44:18;21.70;99.90
22680;DHT22;11507;44.858;10.374;2023-06-22T04:46:51;21.70;99.90
22680;DHT22;11507;44.858;10.374;2023-06-22T04:49:20;21.60;99.90
22680;DHT22;11507;44.858;10.374;2023-06-22T04:51:47;21.60;99.90
22680;DHT22;11507;44.858;10.374;2023-06-22T04:54:14;21.60;99.90
22680;DHT22;11507;44.858;10.374;2023-06-22T04:56:39;21.70;99.90
22680;DHT22;11507;44.858;10.374;2023-06-22T04:59:08;21.70;99.90
22680;DHT22;11507;44.858;10.374;2023-06-22T05:01:34;21.80;99.90
22680;DHT22;11507;44.858;10.374;2023-06-22T05:04:00;21.90;99.90
22680;DHT22;11507;44.858;10.374;2023-06-22T05:06:28;21.90;99.90
22680;DHT22;11507;44.858;10.374;2023-06-22T05:08:54;21.90;99.90
22680;DHT22;11507;44.858;10.374;2023-06-22T05:11:27;22.00;99.90
22680;DHT22;11507;44.858;10.374;2023-06-22T05:13:54;22.10;99.90
22680;DHT22;11507;44.858;10.374;2023-06-22T05:16:21;22.10;99.90
22680;DHT22;11507;44.858;10.374;2023-06-22T05:18:56;22.30;99.90
22680;DHT22;11507;44.858;10.374;2023-06-22T05:21:26;22.40;99.90
22680;DHT22;11507;44.858;10.374;2023-06-22T05:23:53;22.60;99.90
22680;DHT22;11507;44.858;10.374;2023-06-22T05:26:20;22.80;99.90
22680;DHT22;11507;44.858;10.374;2023-06-22T05:28:46;22.80;99.90
22680;DHT22;11507;44.858;10.374;2023-06-22T05:31:14;23.00;99.90
22680;DHT22;11507;44.858;10.374;2023-06-22T05:33:43;23.10;99.90
22680;DHT22;11507;44.858;10.374;2023-06-22T05:36:09;23.20;99.90
22680;DHT22;11507;44.858;10.374;2023-06-22T05:38:36;23.30;99.90
22680;DHT22;11507;44.858;10.374;2023-06-22T05:41:02;23.40;99.90
22680;DHT22;11507;44.858;10.374;2023-06-22T05:43:31;23.50;99.90
22680;DHT22;11507;44.858;10.374;2023-06-22T05:45:57;23.60;99.90
22680;DHT22;11507;44.858;10.374;2023-06-22T05:48:23;23.70;99.90
22680;DHT22;11507;44.858;10.374;2023-06-22T05:50:49;23.80;99.90
22680;DHT22;11507;44.858;10.374;2023-06-22T05:53:15;24.00;99.90
22680;DHT22;11507;44.858;10.374;2023-06-22T05:55:42;24.10;99.90
22680;DHT22;11507;44.858;10.374;2023-06-22T05:58:08;24.20;99.90
22680;DHT22;11507;44.858;10.374;2023-06-22T06:00:34;24.30;99.90
22680;DHT22;11507;44.858;10.374;2023-06-22T06:03:00;24.30;99.90
22680;DHT22;11507;44.858;10.374;2023-06-22T06:05:33;24.40;99.90
22680;DHT22;11507;44.858;10.374;2023-06-22T06:08:04;24.60;99.90
22680;DHT22;11507;44.858;10.374;2023-06-22T06:10:32;24.60;99.90
22680;DHT22;11507;44.858;10.374;2023-06-22T06:12:58;24.80;99.90
22680;DHT22;11507;44.858;10.374;2023-06-22T06:15:24;24.90;99.90
22680;DHT22;11507;44.858;10.374;2023-06-22T06:17:52;25.00;99.90
22680;DHT22;11507;44.858;10.374;2023-06-22T06:20:20;25.10;99.90
22680;DHT22;11507;44.858;10.374;2023-06-22T06:22:47;25.20;99.90
22680;DHT22;11507;44.858;10.374;2023-06-22T06:25:13;25.30;99.90
22680;DHT22;11507;44.858;10.374;2023-06-22T06:27:46;25.50;99.90
22680;DHT22;11507;44.858;10.374;2023-06-22T06:30:13;25.90;99.90
22680;DHT22;11507;44.858;10.374;2023-06-22T06:32:40;26.20;99.90
22680;DHT22;11507;44.858;10.374;2023-06-22T06:35:14;26.40;99.90
22680;DHT22;11507;44.858;10.374;2023-06-22T06:37:50;26.60;99.90
22680;DHT22;11507;44.858;10.374;2023-06-22T06:40:18;27.00;99.90
22680;DHT22;11507;44.858;10.374;2023-06-22T06:42:45;27.10;99.90
22680;DHT22;11507;44.858;10.374;2023-06-22T06:45:23;27.40;99.90
22680;DHT22;11507;44.858;10.374;2023-06-22T06:47:50;27.60;99.90
22680;DHT22;11507;44.858;10.374;2023-06-22T06:50:16;27.80;99.90
22680;DHT22;11507;44.858;10.374;2023-06-22T06:52:42;28.00;99.90
22680;DHT22;11507;44.858;10.374;2023-06-22T06:55:09;28.20;99.90
22680;DHT22;11507;44.858;10.374;2023-06-22T06:57:39;28.40;99.90
22680;DHT22;11507;44.858;10.374;2023-06-22T07:00:07;28.70;99.90
22680;DHT22;11507;44.858;10.374;2023-06-22T07:02:35;28.90;99.90
22680;DHT22;11507;44.858;10.374;2023-06-22T07:05:01;29.00;99.90
22680;DHT22;11507;44.858;10.374;2023-06-22T07:07:30;29.20;99.90
22680;DHT22;11507;44.858;10.374;2023-06-22T07:09:55;29.30;99.90
22680;DHT22;11507;44.858;10.374;2023-06-22T07:12:21;29.40;99.90
22680;DHT22;11507;44.858;10.374;2023-06-22T07:14:47;29.60;99.90
22680;DHT22;11507;44.858;10.374;2023-06-22T07:17:13;29.70;99.90
22680;DHT22;11507;44.858;10.374;2023-06-22T07:19:39;29.80;99.90
22680;DHT22;11507;44.858;10.374;2023-06-22T07:22:05;29.80;97.00
22680;DHT22;11507;44.858;10.374;2023-06-22T07:24:31;29.70;95.60
22680;DHT22;11507;44.858;10.374;2023-06-22T07:26:58;29.70;96.30
22680;DHT22;11507;44.858;10.374;2023-06-22T07:29:25;29.70;95.70
22680;DHT22;11507;44.858;10.374;2023-06-22T07:31:52;29.80;96.10
22680;DHT22;11507;44.858;10.374;2023-06-22T07:34:18;29.80;98.40
22680;DHT22;11507;44.858;10.374;2023-06-22T07:36:45;29.90;98.60
22680;DHT22;11507;44.858;10.374;2023-06-22T07:39:11;29.90;95.80
22680;DHT22;11507;44.858;10.374;2023-06-22T07:41:39;30.00;94.00
22680;DHT22;11507;44.858;10.374;2023-06-22T07:44:07;30.00;93.50
22680;DHT22;11507;44.858;10.374;2023-06-22T07:46:33;30.00;94.80
22680;DHT22;11507;44.858;10.374;2023-06-22T07:48:59;29.90;93.70
22680;DHT22;11507;44.858;10.374;2023-06-22T07:51:26;30.00;93.80
22680;DHT22;11507;44.858;10.374;2023-06-22T07:53:52;30.10;95.80
22680;DHT22;11507;44.858;10.374;2023-06-22T07:56:18;30.20;95.00
22680;DHT22;11507;44.858;10.374;2023-06-22T07:58:50;30.30;95.50
22680;DHT22;11507;44.858;10.374;2023-06-22T08:01:16;30.50;96.90
22680;DHT22;11507;44.858;10.374;2023-06-22T08:03:43;30.70;94.70
22680;DHT22;11507;44.858;10.374;2023-06-22T08:06:09;30.90;95.80
22680;DHT22;11507;44.858;10.374;2023-06-22T08:08:36;31.20;96.00
22680;DHT22;11507;44.858;10.374;2023-06-22T08:11:03;31.30;95.90
22680;DHT22;11507;44.858;10.374;2023-06-22T08:13:29;31.40;95.70
22680;DHT22;11507;44.858;10.374;2023-06-22T08:15:55;31.60;95.90
22680;DHT22;11507;44.858;10.374;2023-06-22T08:18:21;31.70;96.20
22680;DHT22;11507;44.858;10.374;2023-06-22T08:20:47;31.90;97.70
22680;DHT22;11507;44.858;10.374;2023-06-22T08:23:12;32.20;95.80
22680;DHT22;11507;44.858;10.374;2023-06-22T08:25:38;32.20;95.80
22680;DHT22;11507;44.858;10.374;2023-06-22T08:28:05;32.40;97.50
22680;DHT22;11507;44.858;10.374;2023-06-22T08:30:31;32.50;93.10
22680;DHT22;11507;44.858;10.374;2023-06-22T08:32:58;32.50;93.10
22680;DHT22;11507;44.858;10.374;2023-06-22T08:35:24;32.50;93.20
22680;DHT22;11507;44.858;10.374;2023-06-22T08:37:50;32.60;96.40
22680;DHT22;11507;44.858;10.374;2023-06-22T08:40:19;32.60;95.90
22680;DHT22;11507;44.858;10.374;2023-06-22T08:42:48;32.80;95.40
22680;DHT22;11507;44.858;10.374;2023-06-22T08:45:15;33.10;95.20
22680;DHT22;11507;44.858;10.374;2023-06-22T08:47:42;33.30;96.00
22680;DHT22;11507;44.858;10.374;2023-06-22T08:50:09;33.60;95.10
22680;DHT22;11507;44.858;10.374;2023-06-22T08:52:37;33.90;95.80
22680;DHT22;11507;44.858;10.374;2023-06-22T08:55:03;34.00;92.70
22680;DHT22;11507;44.858;10.374;2023-06-22T08:57:29;34.20;92.50
22680;DHT22;11507;44.858;10.374;2023-06-22T08:59:56;34.20;92.60
22680;DHT22;11507;44.858;10.374;2023-06-22T09:02:28;34.30;94.10
22680;DHT22;11507;44.858;10.374;2023-06-22T09:04:59;34.40;94.30
22680;DHT22;11507;44.858;10.374;2023-06-22T09:07:25;34.30;92.20
22680;DHT22;11507;44.858;10.374;2023-06-22T09:09:52;34.40;92.10
22680;DHT22;11507;44.858;10.374;2023-06-22T09:12:20;34.60;91.50
22680;DHT22;11507;44.858;10.374;2023-06-22T09:14:48;34.90;91.60
22680;DHT22;11507;44.858;10.374;2023-06-22T09:17:13;34.90;89.00
22680;DHT22;11507;44.858;10.374;2023-06-22T09:19:39;35.00;90.10
22680;DHT22;11507;44.858;10.374;2023-06-22T09:22:06;35.10;90.10
22680;DHT22;11507;44.858;10.374;2023-06-22T09:24:32;35.10;90.50
22680;DHT22;11507;44.858;10.374;2023-06-22T09:26:58;35.10;91.30
22680;DHT22;11507;44.858;10.374;2023-06-22T09:29:25;35.30;89.70
22680;DHT22;11507;44.858;10.374;2023-06-22T09:31:51;35.50;88.50
22680;DHT22;11507;44.858;10.374;2023-06-22T09:34:19;35.80;89.70
22680;DHT22;11507;44.858;10.374;2023-06-22T09:36:46;36.00;89.90
22680;DHT22;11507;44.858;10.374;2023-06-22T09:39:12;36.20;88.20
22680;DHT22;11507;44.858;10.374;2023-06-22T09:41:38;36.50;85.10
22680;DHT22;11507;44.858;10.374;2023-06-22T09:44:05;36.40;83.10
22680;DHT22;11507;44.858;10.374;2023-06-22T09:46:31;36.50;86.00
22680;DHT22;11507;44.858;10.374;2023-06-22T09:48:57;36.60;77.70
22680;DHT22;11507;44.858;10.374;2023-06-22T09:51:23;36.50;77.20
22680;DHT22;11507;44.858;10.374;2023-06-22T09:53:50;36.40;78.00
22680;DHT22;11507;44.858;10.374;2023-06-22T09:56:16;36.50;83.10
22680;DHT22;11507;44.858;10.374;2023-06-22T09:58:46;36.50;77.90
22680;DHT22;11507;44.858;10.374;2023-06-22T10:01:13;36.80;83.80
22680;DHT22;11507;44.858;10.374;2023-06-22T10:03:42;37.10;82.20
22680;DHT22;11507;44.858;10.374;2023-06-22T10:06:08;37.20;81.20
22680;DHT22;11507;44.858;10.374;2023-06-22T10:08:37;37.40;77.50
22680;DHT22;11507;44.858;10.374;2023-06-22T10:11:04;37.50;75.70
22680;DHT22;11507;44.858;10.374;2023-06-22T10:13:30;37.30;70.10
22680;DHT22;11507;44.858;10.374;2023-06-22T10:15:55;37.10;73.20
22680;DHT22;11507;44.858;10.374;2023-06-22T10:18:21;37.20;77.60
22680;DHT22;11507;44.858;10.374;2023-06-22T10:20:49;37.60;75.90
22680;DHT22;11507;44.858;10.374;2023-06-22T10:23:17;37.70;76.70
22680;DHT22;11507;44.858;10.374;2023-06-22T10:25:43;37.90;75.50
22680;DHT22;11507;44.858;10.374;2023-06-22T10:28:08;38.20;74.30
22680;DHT22;11507;44.858;10.374;2023-06-22T10:30:34;38.30;73.80
22680;DHT22;11507;44.858;10.374;2023-06-22T10:33:00;38.30;69.10
22680;DHT22;11507;44.858;10.374;2023-06-22T10:35:26;38.40;69.90
22680;DHT22;11507;44.858;10.374;2023-06-22T10:37:52;38.40;68.60
22680;DHT22;11507;44.858;10.374;2023-06-22T10:40:20;38.50;71.80
22680;DHT22;11507;44.858;10.374;2023-06-22T10:42:45;38.90;73.70
22680;DHT22;11507;44.858;10.374;2023-06-22T10:45:11;39.20;69.40
22680;DHT22;11507;44.858;10.374;2023-06-22T10:47:37;39.20;65.30
22680;DHT22;11507;44.858;10.374;2023-06-22T10:50:04;39.30;64.70
22680;DHT22;11507;44.858;10.374;2023-06-22T10:52:30;39.50;65.00
22680;DHT22;11507;44.858;10.374;2023-06-22T10:54:55;39.50;67.70
22680;DHT22;11507;44.858;10.374;2023-06-22T10:57:22;39.70;65.60
22680;DHT22;11507;44.858;10.374;2023-06-22T10:59:48;39.80;67.10
22680;DHT22;11507;44.858;10.374;2023-06-22T11:02:16;40.00;66.10
22680;DHT22;11507;44.858;10.374;2023-06-22T11:04:42;40.10;65.30
22680;DHT22;11507;44.858;10.374;2023-06-22T11:07:09;40.30;64.10
22680;DHT22;11507;44.858;10.374;2023-06-22T11:09:35;40.00;64.10
22680;DHT22;11507;44.858;10.374;2023-06-22T11:12:00;40.20;66.00
22680;DHT22;11507;44.858;10.374;2023-06-22T11:14:26;40.40;61.60
22680;DHT22;11507;44.858;10.374;2023-06-22T11:16:53;40.50;62.70
22680;DHT22;11507;44.858;10.374;2023-06-22T11:19:19;40.60;66.20
22680;DHT22;11507;44.858;10.374;2023-06-22T11:21:45;40.70;64.40
22680;DHT22;11507;44.858;10.374;2023-06-22T11:24:10;41.00;64.60
22680;DHT22;11507;44.858;10.374;2023-06-22T11:26:36;40.80;59.60
22680;DHT22;11507;44.858;10.374;2023-06-22T11:29:02;40.80;59.70
22680;DHT22;11507;44.858;10.374;2023-06-22T11:31:34;40.80;60.60
22680;DHT22;11507;44.858;10.374;2023-06-22T11:34:01;40.60;60.10
22680;DHT22;11507;44.858;10.374;2023-06-22T11:36:26;40.90;59.90
22680;DHT22;11507;44.858;10.374;2023-06-22T11:38:52;40.60;58.40
22680;DHT22;11507;44.858;10.374;2023-06-22T11:41:18;40.30;58.50
22680;DHT22;11507;44.858;10.374;2023-06-22T11:43:44;40.10;59.20
22680;DHT22;11507;44.858;10.374;2023-06-22T11:46:10;40.10;59.50
22680;DHT22;11507;44.858;10.374;2023-06-22T11:48:36;40.10;59.90
22680;DHT22;11507;44.858;10.374;2023-06-22T11:51:04;40.40;61.90
22680;DHT22;11507;44.858;10.374;2023-06-22T11:53:31;40.60;58.90
22680;DHT22;11507;44.858;10.374;2023-06-22T11:55:58;40.80;60.90
22680;DHT22;11507;44.858;10.374;2023-06-22T11:58:23;41.20;59.60
22680;DHT22;11507;44.858;10.374;2023-06-22T12:00:49;41.20;60.20
22680;DHT22;11507;44.858;10.374;2023-06-22T12:03:15;41.30;57.90
22680;DHT22;11507;44.858;10.374;2023-06-22T12:05:43;41.40;58.10
22680;DHT22;11507;44.858;10.374;2023-06-22T12:08:09;41.40;56.00
22680;DHT22;11507;44.858;10.374;2023-06-22T12:10:35;41.50;59.30
22680;DHT22;11507;44.858;10.374;2023-06-22T12:13:01;41.60;56.60
22680;DHT22;11507;44.858;10.374;2023-06-22T12:15:27;41.20;54.00
22680;DHT22;11507;44.858;10.374;2023-06-22T12:17:52;41.40;56.20
22680;DHT22;11507;44.858;10.374;2023-06-22T12:20:19;41.60;57.10
22680;DHT22;11507;44.858;10.374;2023-06-22T12:22:45;41.80;59.30
22680;DHT22;11507;44.858;10.374;2023-06-22T12:25:11;42.00;57.60
22680;DHT22;11507;44.858;10.374;2023-06-22T12:27:37;42.30;57.00
22680;DHT22;11507;44.858;10.374;2023-06-22T12:30:03;42.70;55.50
22680;DHT22;11507;44.858;10.374;2023-06-22T12:32:30;42.70;55.60
22680;DHT22;11507;44.858;10.374;2023-06-22T12:34:56;42.40;56.00
22680;DHT22;11507;44.858;10.374;2023-06-22T12:37:22;42.70;55.50
22680;DHT22;11507;44.858;10.374;2023-06-22T12:39:49;42.70;54.80
22680;DHT22;11507;44.858;10.374;2023-06-22T12:42:16;43.00;54.40
22680;DHT22;11507;44.858;10.374;2023-06-22T12:44:42;43.10;53.60
22680;DHT22;11507;44.858;10.374;2023-06-22T12:47:08;42.90;54.70
22680;DHT22;11507;44.858;10.374;2023-06-22T12:49:35;42.60;55.30
22680;DHT22;11507;44.858;10.374;2023-06-22T12:52:02;42.50;54.30
22680;DHT22;11507;44.858;10.374;2023-06-22T12:54:28;42.50;55.30
22680;DHT22;11507;44.858;10.374;2023-06-22T12:56:56;42.50;55.90
22680;DHT22;11507;44.858;10.374;2023-06-22T12:59:22;42.30;54.80
22680;DHT22;11507;44.858;10.374;2023-06-22T13:01:48;42.00;55.20
22680;DHT22;11507;44.858;10.374;2023-06-22T13:04:14;41.90;56.60
22680;DHT22;11507;44.858;10.374;2023-06-22T13:06:41;42.30;55.30
22680;DHT22;11507;44.858;10.374;2023-06-22T13:09:09;42.20;54.40
22680;DHT22;11507;44.858;10.374;2023-06-22T13:11:34;42.60;56.30
22680;DHT22;11507;44.858;10.374;2023-06-22T13:14:00;43.10;54.40
22680;DHT22;11507;44.858;10.374;2023-06-22T13:16:26;43.30;54.00
22680;DHT22;11507;44.858;10.374;2023-06-22T13:18:52;43.30;55.00
22680;DHT22;11507;44.858;10.374;2023-06-22T13:21:18;42.90;52.40
22680;DHT22;11507;44.858;10.374;2023-06-22T13:23:44;42.10;52.50
22680;DHT22;11507;44.858;10.374;2023-06-22T13:26:10;41.50;53.50
22680;DHT22;11507;44.858;10.374;2023-06-22T13:28:36;40.80;54.80
22680;DHT22;11507;44.858;10.374;2023-06-22T13:31:03;40.60;56.30
22680;DHT22;11507;44.858;10.374;2023-06-22T13:33:29;40.80;56.30
22680;DHT22;11507;44.858;10.374;2023-06-22T13:35:55;40.80;57.70
22680;DHT22;11507;44.858;10.374;2023-06-22T13:38:21;40.60;57.10
22680;DHT22;11507;44.858;10.374;2023-06-22T13:40:48;40.50;58.70
22680;DHT22;11507;44.858;10.374;2023-06-22T13:43:14;40.30;57.60
22680;DHT22;11507;44.858;10.374;2023-06-22T13:45:41;40.10;58.20
22680;DHT22;11507;44.858;10.374;2023-06-22T13:48:08;39.50;58.20
22680;DHT22;11507;44.858;10.374;2023-06-22T13:50:35;39.10;57.60
22680;DHT22;11507;44.858;10.374;2023-06-22T13:53:01;38.80;58.80
22680;DHT22;11507;44.858;10.374;2023-06-22T13:55:27;38.60;60.50
22680;DHT22;11507;44.858;10.374;2023-06-22T13:57:53;38.40;61.50
22680;DHT22;11507;44.858;10.374;2023-06-22T14:00:19;38.10;61.00
22680;DHT22;11507;44.858;10.374;2023-06-22T14:02:45;37.90;61.00
22680;DHT22;11507;44.858;10.374;2023-06-22T14:05:11;37.60;62.60
22680;DHT22;11507;44.858;10.374;2023-06-22T14:07:37;37.30;61.70
22680;DHT22;11507;44.858;10.374;2023-06-22T14:10:04;37.10;61.50
22680;DHT22;11507;44.858;10.374;2023-06-22T14:12:30;36.90;61.00
22680;DHT22;11507;44.858;10.374;2023-06-22T14:14:55;36.90;62.80
22680;DHT22;11507;44.858;10.374;2023-06-22T14:17:23;37.00;63.40
22680;DHT22;11507;44.858;10.374;2023-06-22T14:19:52;37.10;64.60
22680;DHT22;11507;44.858;10.374;2023-06-22T14:22:21;37.20;64.80
22680;DHT22;11507;44.858;10.374;2023-06-22T14:24:49;37.30;64.70
22680;DHT22;11507;44.858;10.374;2023-06-22T14:27:15;37.40;65.60
22680;DHT22;11507;44.858;10.374;2023-06-22T14:29:45;37.50;64.40
22680;DHT22;11507;44.858;10.374;2023-06-22T14:32:10;37.70;64.70
22680;DHT22;11507;44.858;10.374;2023-06-22T14:34:36;37.80;63.60
22680;DHT22;11507;44.858;10.374;2023-06-22T14:37:06;37.70;64.40
22680;DHT22;11507;44.858;10.374;2023-06-22T14:39:33;37.60;65.60
22680;DHT22;11507;44.858;10.374;2023-06-22T14:41:59;37.50;67.40
22680;DHT22;11507;44.858;10.374;2023-06-22T14:44:26;37.30;67.90
22680;DHT22;11507;44.858;10.374;2023-06-22T14:46:55;37.10;67.50
22680;DHT22;11507;44.858;10.374;2023-06-22T14:49:21;37.00;67.70
22680;DHT22;11507;44.858;10.374;2023-06-22T14:51:46;36.80;66.20
22680;DHT22;11507;44.858;10.374;2023-06-22T14:54:12;36.70;68.20
22680;DHT22;11507;44.858;10.374;2023-06-22T14:56:39;36.50;68.80
22680;DHT22;11507;44.858;10.374;2023-06-22T14:59:05;36.50;68.90
22680;DHT22;11507;44.858;10.374;2023-06-22T15:01:30;36.40;69.70
22680;DHT22;11507;44.858;10.374;2023-06-22T15:03:56;36.40;71.40
22680;DHT22;11507;44.858;10.374;2023-06-22T15:06:22;36.30;71.30
22680;DHT22;11507;44.858;10.374;2023-06-22T15:08:48;36.30;70.60
22680;DHT22;11507;44.858;10.374;2023-06-22T15:11:14;36.30;70.40
22680;DHT22;11507;44.858;10.374;2023-06-22T15:13:40;36.30;70.00
22680;DHT22;11507;44.858;10.374;2023-06-22T15:16:07;36.30;70.20
22680;DHT22;11507;44.858;10.374;2023-06-22T15:18:35;36.40;71.50